createdAt,value
2023-04-27T00:02:06.454Z,2.97
2023-04-27T00:04:35.496Z,7.43
2023-04-27T00:07:04.551Z,3.17
2023-04-27T00:09:33.649Z,3.25
2023-04-27T00:12:02.674Z,4.10
2023-04-27T00:14:31.611Z,5.15
2023-04-27T00:17:01.881Z,4.93
2023-04-27T00:19:31.387Z,6.88
2023-04-27T00:22:00.470Z,7.45
2023-04-27T00:24:29.543Z,7.78
2023-04-27T00:26:58.334Z,6.63
2023-04-27T00:29:27.343Z,4.30
2023-04-27T00:31:56.528Z,4.28
2023-04-27T00:34:26.860Z,3.22
2023-04-27T00:36:55.716Z,4.78
2023-04-27T00:39:24.569Z,4.32
2023-04-27T00:41:53.478Z,3.22
2023-04-27T00:44:26.382Z,3.90
2023-04-27T00:46:55.571Z,2.22
2023-04-27T00:49:27.529Z,3.47
2023-04-27T00:51:56.942Z,6.05
2023-04-27T00:54:26.357Z,4.70
2023-04-27T00:56:55.697Z,3.38
2023-04-27T00:59:25.307Z,5.75
2023-04-27T01:01:56.277Z,5.80
2023-04-27T01:04:27.225Z,5.00
2023-04-27T01:06:57.033Z,5.35
2023-04-27T01:09:26.739Z,14.55
2023-04-27T01:11:56.240Z,9.40
2023-04-27T01:14:25.283Z,7.13
2023-04-27T01:16:54.251Z,3.08
2023-04-27T01:19:23.942Z,5.75
2023-04-27T01:21:54.184Z,6.82
2023-04-27T01:24:24.481Z,5.90
2023-04-27T01:26:54.074Z,4.43
2023-04-27T01:29:22.954Z,4.82
2023-04-27T01:31:51.825Z,4.43
2023-04-27T01:34:20.726Z,5.78
2023-04-27T01:36:50.150Z,2.60
2023-04-27T01:39:19.343Z,5.88
2023-04-27T01:41:49.852Z,7.43
2023-04-27T01:44:20.734Z,5.80
2023-04-27T01:46:50.130Z,3.20
2023-04-27T01:49:19.389Z,6.40
2023-04-27T01:51:48.505Z,4.10
2023-04-27T01:54:18.658Z,4.30
2023-04-27T01:56:49.153Z,3.20
2023-04-27T01:59:20.270Z,8.38
2023-04-27T02:01:49.344Z,4.32
2023-04-27T02:04:18.647Z,3.38
2023-04-27T02:06:47.884Z,5.53
2023-04-27T02:09:16.940Z,5.53
2023-04-27T02:11:46.141Z,7.85
2023-04-27T02:14:16.567Z,3.22
2023-04-27T02:16:48.108Z,6.32
2023-04-27T02:19:17.582Z,6.72
2023-04-27T02:21:46.614Z,3.40
2023-04-27T02:24:15.715Z,3.10
2023-04-27T02:26:47.253Z,4.00
2023-04-27T02:29:18.680Z,4.68
2023-04-27T02:31:48.330Z,6.30
2023-04-27T02:34:17.424Z,7.43
2023-04-27T02:36:46.687Z,6.50
2023-04-27T02:39:16.173Z,8.57
2023-04-27T02:41:45.510Z,9.98
2023-04-27T02:44:14.624Z,7.15
2023-04-27T02:46:45.245Z,3.47
2023-04-27T02:49:14.898Z,6.20
2023-04-27T02:51:44.259Z,5.10
2023-04-27T02:54:13.301Z,5.55
2023-04-27T02:56:42.441Z,11.90
2023-04-27T02:59:11.799Z,7.40
2023-04-27T03:01:41.072Z,5.60
2023-04-27T03:04:14.226Z,11.93
2023-04-27T03:06:43.497Z,4.15
2023-04-27T03:09:13.086Z,4.43
2023-04-27T03:11:42.350Z,6.55
2023-04-27T03:14:12.795Z,6.40
2023-04-27T03:16:41.844Z,4.05
2023-04-27T03:19:12.607Z,5.32
2023-04-27T03:21:41.999Z,11.20
2023-04-27T03:24:11.403Z,5.70
2023-04-27T03:26:40.499Z,6.65
2023-04-27T03:29:10.225Z,11.07
2023-04-27T03:31:39.350Z,4.68
2023-04-27T03:34:08.363Z,4.50
2023-04-27T03:36:38.846Z,6.95
2023-04-27T03:39:08.153Z,7.43
2023-04-27T03:41:37.463Z,3.80
2023-04-27T03:44:07.193Z,3.63
2023-04-27T03:46:37.019Z,3.78
2023-04-27T03:49:06.512Z,4.15
2023-04-27T03:51:38.537Z,8.02
2023-04-27T03:54:07.672Z,12.13
2023-04-27T03:56:37.102Z,3.95
2023-04-27T03:59:06.824Z,11.68
2023-04-27T04:01:40.054Z,7.65
2023-04-27T04:04:09.325Z,5.43
2023-04-27T04:06:40.051Z,7.30
2023-04-27T04:09:09.163Z,6.90
2023-04-27T04:11:38.674Z,4.10
2023-04-27T04:14:09.278Z,7.40
2023-04-27T04:16:38.365Z,4.95
2023-04-27T04:19:07.471Z,2.30
2023-04-27T04:21:36.567Z,4.28
2023-04-27T04:24:07.716Z,3.13
2023-04-27T04:26:37.448Z,6.65
2023-04-27T04:29:08.355Z,6.07
2023-04-27T04:31:39.001Z,5.30
2023-04-27T04:34:08.685Z,6.00
2023-04-27T04:36:38.203Z,9.23
2023-04-27T04:39:08.841Z,6.35
2023-04-27T04:41:38.474Z,3.72
2023-04-27T04:44:09.687Z,10.98
2023-04-27T04:46:39.016Z,5.90
2023-04-27T04:49:08.704Z,5.28
2023-04-27T04:51:38.479Z,5.63
2023-04-27T04:54:09.616Z,5.88
2023-04-27T04:56:38.943Z,8.05
2023-04-27T04:59:08.095Z,10.70
2023-04-27T05:01:37.214Z,5.22
2023-04-27T05:04:07.165Z,6.82
2023-04-27T05:06:36.408Z,6.53
2023-04-27T05:09:06.530Z,5.55
2023-04-27T05:11:37.063Z,3.00
2023-04-27T05:14:06.306Z,6.93
2023-04-27T05:16:35.498Z,5.18
2023-04-27T05:19:06.090Z,4.30
2023-04-27T05:21:35.449Z,6.03
2023-04-27T05:24:05.341Z,5.13
2023-04-27T05:26:36.015Z,3.88
2023-04-27T05:29:05.378Z,7.55
2023-04-27T05:31:34.803Z,8.70
2023-04-27T05:34:03.973Z,5.18
2023-04-27T05:36:33.033Z,2.30
2023-04-27T05:39:02.409Z,10.18
2023-04-27T05:41:32.424Z,7.93
2023-04-27T05:44:03.166Z,7.55
2023-04-27T05:46:32.479Z,8.13
2023-04-27T05:49:02.260Z,6.18
2023-04-27T05:51:31.520Z,9.88
2023-04-27T05:54:02.137Z,3.42
2023-04-27T05:56:31.870Z,6.00
2023-04-27T05:59:02.897Z,10.13
2023-04-27T06:01:32.476Z,5.45
2023-04-27T06:04:02.044Z,7.25
2023-04-27T06:06:34.338Z,7.63
2023-04-27T06:09:04.157Z,3.28
2023-04-27T06:11:33.416Z,6.13
2023-04-27T06:14:03.969Z,6.22
2023-04-27T06:16:33.403Z,3.75
2023-04-27T06:19:02.928Z,4.85
2023-04-27T06:21:34.962Z,4.25
2023-04-27T06:24:04.730Z,7.78
2023-04-27T06:26:33.908Z,6.50
2023-04-27T06:29:04.661Z,7.45
2023-04-27T06:31:34.264Z,3.97
2023-04-27T06:34:04.702Z,5.97
2023-04-27T06:36:33.899Z,3.00
2023-04-27T06:39:03.036Z,10.55
2023-04-27T06:41:32.225Z,5.55
2023-04-27T06:44:01.130Z,5.18
2023-04-27T06:46:31.855Z,7.10
2023-04-27T06:49:01.681Z,6.90
2023-04-27T06:51:30.689Z,3.13
2023-04-27T06:53:59.756Z,6.50
2023-04-27T06:56:28.812Z,4.28
2023-04-27T06:58:57.964Z,2.40
2023-04-27T07:01:27.092Z,4.70
2023-04-27T07:03:58.026Z,4.72
2023-04-27T07:06:28.876Z,3.53
2023-04-27T07:08:57.994Z,5.25
2023-04-27T07:11:27.054Z,2.58
2023-04-27T07:13:56.443Z,4.70
2023-04-27T07:16:25.769Z,5.97
2023-04-27T07:18:56.453Z,4.40
2023-04-27T07:21:25.603Z,5.38
2023-04-27T07:23:56.082Z,12.25
2023-04-27T07:26:25.269Z,3.30
2023-04-27T07:28:55.199Z,5.93
2023-04-27T07:31:24.334Z,4.78
2023-04-27T07:33:55.225Z,6.33
2023-04-27T07:36:25.753Z,2.70
2023-04-27T07:38:54.865Z,3.17
2023-04-27T07:41:24.114Z,2.33
2023-04-27T07:43:53.243Z,3.67
2023-04-27T07:46:22.447Z,10.30
2023-04-27T07:48:51.708Z,6.60
2023-04-27T07:51:28.980Z,5.88
2023-04-27T07:53:58.616Z,9.43
2023-04-27T07:56:28.064Z,2.95
2023-04-27T07:58:58.003Z,4.60
2023-04-27T08:01:27.214Z,4.18
2023-04-27T08:03:56.733Z,6.35
2023-04-27T08:06:28.842Z,4.88
2023-04-27T08:09:00.886Z,3.28
2023-04-27T08:11:30.859Z,7.75
2023-04-27T08:13:59.936Z,8.80
2023-04-27T08:16:29.331Z,4.80
2023-04-27T08:19:00.469Z,7.43
2023-04-27T08:21:32.957Z,3.27
2023-04-27T08:24:02.135Z,3.67
2023-04-27T08:26:31.495Z,4.17
2023-04-27T08:29:03.264Z,10.30
2023-04-27T08:31:38.103Z,2.90
2023-04-27T08:34:07.149Z,7.00
2023-04-27T08:36:37.649Z,6.57
2023-04-27T08:39:07.925Z,3.03
2023-04-27T08:41:43.295Z,5.53
2023-04-27T08:44:12.482Z,6.03
2023-04-27T08:46:42.268Z,9.73
2023-04-27T08:49:12.353Z,7.33
2023-04-27T08:51:45.030Z,4.20
2023-04-27T08:54:14.149Z,8.20
2023-04-27T08:56:43.134Z,3.40
2023-04-27T08:59:17.884Z,10.27
2023-04-27T09:01:48.968Z,7.23
2023-04-27T09:04:19.951Z,7.07
2023-04-27T09:06:50.975Z,6.17
2023-04-27T09:09:27.346Z,4.17
2023-04-27T09:11:56.606Z,5.47
2023-04-27T09:14:26.420Z,6.50
2023-04-27T09:16:59.703Z,2.50
2023-04-27T09:19:30.264Z,4.93
2023-04-27T09:22:09.245Z,6.57
2023-04-27T09:24:38.862Z,4.20
2023-04-27T09:27:09.591Z,3.57
2023-04-27T09:29:40.200Z,4.93
2023-04-27T09:32:21.097Z,4.55
2023-04-27T09:34:50.379Z,7.43
2023-04-27T09:37:21.087Z,3.67
2023-04-27T09:39:51.186Z,6.57
2023-04-27T09:42:20.859Z,5.40
2023-04-27T09:44:51.687Z,3.33
2023-04-27T09:47:20.961Z,9.03
2023-04-27T09:49:51.176Z,5.20
2023-04-27T09:52:22.196Z,2.47
2023-04-27T09:54:51.321Z,7.20
2023-04-27T09:57:33.963Z,2.87
2023-04-27T10:00:14.796Z,4.47
2023-04-27T10:02:54.609Z,4.67
2023-04-27T10:05:37.261Z,11.07
2023-04-27T10:08:08.494Z,6.20
2023-04-27T10:10:49.911Z,6.23
2023-04-27T10:13:32.844Z,3.20
2023-04-27T10:16:17.517Z,7.53
2023-04-27T10:18:54.149Z,8.43
2023-04-27T10:21:23.891Z,4.50
2023-04-27T10:23:54.585Z,3.60
2023-04-27T10:26:27.135Z,3.40
2023-04-27T10:29:08.444Z,5.70
2023-04-27T10:31:44.481Z,5.90
2023-04-27T10:34:21.297Z,3.30
2023-04-27T10:36:50.826Z,2.83
2023-04-27T10:39:36.000Z,2.07
2023-04-27T10:42:13.408Z,2.13
2023-04-27T10:44:42.551Z,7.53
2023-04-27T10:47:17.002Z,5.07
2023-04-27T10:49:46.183Z,3.07
2023-04-27T10:52:15.638Z,2.80
2023-04-27T10:54:49.136Z,4.73
2023-04-27T10:57:18.240Z,3.70
2023-04-27T10:59:52.102Z,3.73
2023-04-27T11:02:28.968Z,3.87
2023-04-27T11:04:58.826Z,3.70
2023-04-27T11:07:29.444Z,2.13
2023-04-27T11:09:59.925Z,2.80
2023-04-27T11:12:29.009Z,2.37
2023-04-27T11:14:59.994Z,3.43
2023-04-27T11:17:33.472Z,5.07
2023-04-27T11:20:03.497Z,4.93
2023-04-27T11:22:32.634Z,5.00
2023-04-27T11:25:03.809Z,6.73
2023-04-27T11:27:40.544Z,3.83
2023-04-27T11:30:22.588Z,2.83
2023-04-27T11:32:53.836Z,6.13
2023-04-27T11:35:33.371Z,3.63
2023-04-27T11:38:03.392Z,4.63
2023-04-27T11:40:35.955Z,5.47
2023-04-27T11:43:05.708Z,3.47
2023-04-27T11:45:34.795Z,3.37
2023-04-27T11:48:07.073Z,3.67
2023-04-27T11:50:36.338Z,3.80
2023-04-27T11:53:05.652Z,2.00
2023-04-27T11:55:41.345Z,3.93
2023-04-27T11:58:15.776Z,2.30
2023-04-27T12:00:45.463Z,4.10
2023-04-27T12:03:14.792Z,1.70
2023-04-27T12:05:50.590Z,11.77
2023-04-27T12:08:19.984Z,2.07
2023-04-27T12:10:51.159Z,3.93
2023-04-27T12:13:20.433Z,5.63
2023-04-27T12:15:49.487Z,2.70
2023-04-27T12:18:20.844Z,5.37
2023-04-27T12:20:52.472Z,3.03
2023-04-27T12:23:25.202Z,3.40
2023-04-27T12:25:55.741Z,3.87
2023-04-27T12:28:24.904Z,4.00
2023-04-27T12:30:54.074Z,12.90
2023-04-27T12:33:23.336Z,2.93
2023-04-27T12:35:52.505Z,4.63
2023-04-27T12:38:23.515Z,6.90
2023-04-27T12:40:52.673Z,5.37
2023-04-27T12:43:23.565Z,2.67
2023-04-27T12:45:52.712Z,1.60
2023-04-27T12:48:22.839Z,2.70
2023-04-27T12:50:51.893Z,2.63
2023-04-27T12:53:21.835Z,2.97
2023-04-27T12:55:53.691Z,3.27
2023-04-27T12:58:24.510Z,6.53
2023-04-27T13:00:53.762Z,2.20
2023-04-27T13:03:22.809Z,3.97
2023-04-27T13:05:52.308Z,5.53
2023-04-27T13:08:21.521Z,8.30
2023-04-27T13:10:50.776Z,3.63
2023-04-27T13:13:19.899Z,12.20
2023-04-27T13:15:50.750Z,7.80
2023-04-27T13:18:19.933Z,2.57
2023-04-27T13:20:52.603Z,3.37
2023-04-27T13:23:21.827Z,3.80
2023-04-27T13:25:52.554Z,3.40
2023-04-27T13:28:21.846Z,6.80
2023-04-27T13:30:53.434Z,1.80
2023-04-27T13:33:23.795Z,5.23
2023-04-27T13:35:53.178Z,4.40
2023-04-27T13:38:22.262Z,1.90
2023-04-27T13:40:51.415Z,3.57
2023-04-27T13:43:20.506Z,1.50
2023-04-27T13:45:51.050Z,2.40
2023-04-27T13:48:21.708Z,3.10
2023-04-27T13:50:51.277Z,2.20
2023-04-27T13:53:22.627Z,4.37
2023-04-27T13:55:51.786Z,1.80
2023-04-27T13:58:21.448Z,4.40
2023-04-27T14:00:52.935Z,5.00
2023-04-27T14:03:23.931Z,7.00
2023-04-27T14:05:53.115Z,3.47
2023-04-27T14:08:22.621Z,2.87
2023-04-27T14:10:51.732Z,2.33
2023-04-27T14:13:21.128Z,3.50
2023-04-27T14:15:50.356Z,2.53
2023-04-27T14:18:19.736Z,4.60
2023-04-27T14:20:54.646Z,4.00
2023-04-27T14:23:23.904Z,4.73
2023-04-27T14:25:52.955Z,2.13
2023-04-27T14:28:21.962Z,3.03
2023-04-27T14:30:51.095Z,2.13
2023-04-27T14:33:20.202Z,4.17
2023-04-27T14:35:50.553Z,3.23
2023-04-27T14:38:19.634Z,3.50
2023-04-27T14:40:48.848Z,2.10
2023-04-27T14:43:18.302Z,2.33
2023-04-27T14:45:52.756Z,2.83
2023-04-27T14:48:26.860Z,2.53
2023-04-27T14:50:57.430Z,3.73
2023-04-27T14:53:26.646Z,3.00
2023-04-27T14:55:55.721Z,3.30
2023-04-27T14:58:24.933Z,2.80
2023-04-27T15:00:56.092Z,2.33
2023-04-27T15:03:25.220Z,4.27
2023-04-27T15:05:54.340Z,4.93
2023-04-27T15:08:24.943Z,3.87
2023-04-27T15:10:57.692Z,1.80
2023-04-27T15:13:26.945Z,2.63
2023-04-27T15:15:57.048Z,3.57
2023-04-27T15:18:26.913Z,3.73
2023-04-27T15:20:56.753Z,4.10
2023-04-27T15:23:28.270Z,4.50
2023-04-27T15:25:59.176Z,4.37
2023-04-27T15:28:28.369Z,6.10
2023-04-27T15:30:57.569Z,10.40
2023-04-27T15:33:27.210Z,2.23
2023-04-27T15:35:56.313Z,5.90
2023-04-27T15:38:27.456Z,6.13
2023-04-27T15:40:56.544Z,5.33
2023-04-27T15:43:26.025Z,5.00
2023-04-27T15:45:56.296Z,5.83
2023-04-27T15:48:26.054Z,4.20
2023-04-27T15:50:55.154Z,5.20
2023-04-27T15:53:24.496Z,4.63
2023-04-27T15:55:55.244Z,5.80
2023-04-27T15:58:24.377Z,6.27
2023-04-27T16:00:53.554Z,6.37
2023-04-27T16:03:23.280Z,6.93
2023-04-27T16:05:52.646Z,4.03
2023-04-27T16:08:22.538Z,2.33
2023-04-27T16:10:53.281Z,9.50
2023-04-27T16:13:24.401Z,5.23
2023-04-27T16:15:56.281Z,3.63
2023-04-27T16:18:26.945Z,5.83
2023-04-27T16:20:57.496Z,5.57
2023-04-27T16:23:28.757Z,3.50
2023-04-27T16:26:00.375Z,3.00
2023-04-27T16:28:30.786Z,4.90
2023-04-27T16:31:01.408Z,4.57
2023-04-27T16:33:31.994Z,3.70
2023-04-27T16:36:02.727Z,3.60
2023-04-27T16:38:32.264Z,5.93
2023-04-27T16:41:04.355Z,5.60
2023-04-27T16:43:34.755Z,4.13
2023-04-27T16:46:04.817Z,3.73
2023-04-27T16:48:35.034Z,2.87
2023-04-27T16:51:05.202Z,4.10
2023-04-27T16:53:40.413Z,2.33
2023-04-27T16:56:13.792Z,3.90
2023-04-27T16:58:44.342Z,3.40
2023-04-27T17:01:17.592Z,2.40
2023-04-27T17:03:52.179Z,3.43
2023-04-27T17:06:22.977Z,3.57
2023-04-27T17:08:57.897Z,4.70
2023-04-27T17:11:32.282Z,3.20
2023-04-27T17:14:02.694Z,5.77
2023-04-27T17:16:33.804Z,4.60
2023-04-27T17:19:04.494Z,3.70
2023-04-27T17:21:38.814Z,10.20
2023-04-27T17:24:13.235Z,3.00
2023-04-27T17:26:46.203Z,2.00
2023-04-27T17:29:16.100Z,4.03
2023-04-27T17:31:45.929Z,7.27
2023-04-27T17:34:16.449Z,2.43
2023-04-27T17:36:45.729Z,5.17
2023-04-27T17:39:15.033Z,15.10
2023-04-27T17:41:45.855Z,5.30
2023-04-27T17:44:15.197Z,3.23
2023-04-27T17:46:47.878Z,2.90
2023-04-27T17:49:17.469Z,5.33
2023-04-27T17:51:47.416Z,6.03
2023-04-27T17:54:16.588Z,5.70
2023-04-27T17:56:47.385Z,3.20
2023-04-27T17:59:16.802Z,3.78
2023-04-27T18:01:46.412Z,5.23
2023-04-27T18:04:15.719Z,3.00
2023-04-27T18:06:44.977Z,4.67
2023-04-27T18:09:14.530Z,8.87
2023-04-27T18:11:43.899Z,5.95
2023-04-27T18:14:14.708Z,3.67
2023-04-27T18:16:44.273Z,4.80
2023-04-27T18:19:13.921Z,6.80
2023-04-27T18:21:43.239Z,5.90
2023-04-27T18:24:12.423Z,5.03
2023-04-27T18:26:41.584Z,5.72
2023-04-27T18:29:10.825Z,4.88
2023-04-27T18:31:41.338Z,8.35
2023-04-27T18:34:10.824Z,6.82
2023-04-27T18:36:39.994Z,8.60
2023-04-27T18:39:09.392Z,6.35
2023-04-27T18:41:38.555Z,7.35
2023-04-27T18:44:08.334Z,3.53
2023-04-27T18:46:37.739Z,6.53
2023-04-27T18:49:08.389Z,6.72
2023-04-27T18:51:37.902Z,3.65
2023-04-27T18:56:41.426Z,5.13
2023-04-27T18:59:10.656Z,9.15
2023-04-27T19:01:40.809Z,8.93
2023-04-27T19:04:11.943Z,5.15
2023-04-27T19:06:41.331Z,9.50
2023-04-27T19:09:10.911Z,7.32
2023-04-27T19:11:40.156Z,13.23
2023-04-27T19:14:09.391Z,9.73
2023-04-27T19:16:38.430Z,6.55
2023-04-27T19:19:07.577Z,9.95
2023-04-27T19:21:39.251Z,6.50
2023-04-27T19:24:08.763Z,5.75
2023-04-27T19:26:38.190Z,6.85
2023-04-27T19:29:07.485Z,9.90
2023-04-27T19:31:36.745Z,11.95
2023-04-27T19:34:06.085Z,8.57
2023-04-27T19:36:36.727Z,10.48
2023-04-27T19:39:06.157Z,5.35
2023-04-27T19:41:35.960Z,7.00
2023-04-27T19:44:08.081Z,7.00
2023-04-27T19:46:37.256Z,13.45
2023-04-27T19:49:06.802Z,5.07
2023-04-27T19:51:37.707Z,9.27
2023-04-27T19:54:06.969Z,9.65
2023-04-27T19:56:36.070Z,9.48
2023-04-27T19:59:05.208Z,7.63
2023-04-27T20:01:34.753Z,11.80
2023-04-27T20:04:04.167Z,9.65
2023-04-27T20:06:34.496Z,9.98
2023-04-27T20:09:05.330Z,10.70
2023-04-27T20:11:34.681Z,6.32
2023-04-27T20:14:03.904Z,6.60
2023-04-27T20:16:38.897Z,17.60
2023-04-27T20:19:08.179Z,12.75
2023-04-27T20:21:37.315Z,8.90
2023-04-27T20:24:08.485Z,8.43
2023-04-27T20:26:37.531Z,11.90
2023-04-27T20:29:06.812Z,10.95
2023-04-27T20:31:36.057Z,6.20
2023-04-27T20:34:05.333Z,12.82
2023-04-27T20:36:34.559Z,7.45
2023-04-27T20:39:05.719Z,9.50
2023-04-27T20:41:36.224Z,10.55
2023-04-27T20:44:06.067Z,17.85
2023-04-27T20:46:35.154Z,10.48
2023-04-27T20:49:04.604Z,8.32
2023-04-27T20:51:34.103Z,12.27
2023-04-27T20:54:03.431Z,13.80
2023-04-27T20:56:33.091Z,15.52
2023-04-27T20:59:04.591Z,16.55
2023-04-27T21:01:34.848Z,17.08
2023-04-27T21:04:04.389Z,17.48
2023-04-27T21:06:33.912Z,13.65
2023-04-27T21:09:03.252Z,13.82
2023-04-27T21:11:32.516Z,18.65
2023-04-27T21:14:03.298Z,15.27
2023-04-27T21:16:34.115Z,13.20
2023-04-27T21:19:03.266Z,11.73
2023-04-27T21:21:32.563Z,23.70
2023-04-27T21:24:08.223Z,15.88
2023-04-27T21:26:48.661Z,14.77
2023-04-27T21:29:19.437Z,18.40
2023-04-27T21:31:48.694Z,14.65
2023-04-27T21:34:18.005Z,16.98
2023-04-27T21:36:47.494Z,17.30
2023-04-27T21:39:16.836Z,20.02
2023-04-27T21:41:46.099Z,21.75
2023-04-27T21:44:15.786Z,18.42
2023-04-27T21:46:46.669Z,16.58
2023-04-27T21:49:15.853Z,19.35
2023-04-27T21:51:45.072Z,17.05
2023-04-27T21:54:14.489Z,17.45
2023-04-27T21:56:45.186Z,21.20
2023-04-27T21:59:14.599Z,22.20
2023-04-27T22:01:45.303Z,17.73
2023-04-27T22:04:17.138Z,20.63
2023-04-27T22:06:47.498Z,18.52
2023-04-27T22:09:16.765Z,20.50
2023-04-27T22:11:46.703Z,19.90
2023-04-27T22:14:17.329Z,25.85
2023-04-27T22:16:46.688Z,20.48
2023-04-27T22:19:18.040Z,21.08
2023-04-27T22:21:47.450Z,16.90
2023-04-27T22:24:16.816Z,23.33
2023-04-27T22:26:47.273Z,24.40
2023-04-27T22:29:16.632Z,19.63
2023-04-27T22:31:46.510Z,18.90
2023-04-27T22:34:17.897Z,16.98
2023-04-27T22:36:47.407Z,18.55
2023-04-27T22:39:16.721Z,17.77
2023-04-27T22:41:47.032Z,13.60
2023-04-27T22:44:17.566Z,17.92
2023-04-27T22:47:08.800Z,19.90
2023-04-27T22:49:39.647Z,21.33
2023-04-27T22:52:12.932Z,19.83
2023-04-27T22:54:42.112Z,18.13
2023-04-27T22:57:11.292Z,19.20
2023-04-27T22:59:40.944Z,14.93
2023-04-27T23:02:10.159Z,15.07
2023-04-27T23:04:41.159Z,20.33
2023-04-27T23:07:10.682Z,15.70
2023-04-27T23:09:39.632Z,14.95
2023-04-27T23:12:09.124Z,18.17
2023-04-27T23:14:40.061Z,14.95
2023-04-27T23:17:10.362Z,16.60
2023-04-27T23:19:40.804Z,16.65
2023-04-27T23:22:09.903Z,16.80
2023-04-27T23:24:38.978Z,14.88
2023-04-27T23:27:08.030Z,18.02
2023-04-27T23:29:37.126Z,14.50
2023-04-27T23:32:08.042Z,23.02
2023-04-27T23:34:37.256Z,17.50
2023-04-27T23:37:08.332Z,16.00
2023-04-27T23:39:37.691Z,22.83
2023-04-27T23:42:07.067Z,15.27
2023-04-27T23:44:36.437Z,12.43
2023-04-27T23:47:05.655Z,15.70
2023-04-27T23:49:35.142Z,17.58
2023-04-27T23:52:05.122Z,16.17
2023-04-27T23:54:36.143Z,12.88
2023-04-27T23:57:05.317Z,15.18
2023-04-27T23:59:35.814Z,15.70
